createdAt,value
2022-10-28T00:02:11.640Z,79.58
2022-10-28T00:05:17.090Z,79.24
2022-10-28T00:08:23.597Z,79.40
2022-10-28T00:11:42.558Z,79.75
2022-10-28T00:14:49.311Z,79.84
2022-10-28T00:17:55.166Z,79.79
2022-10-28T00:21:01.645Z,79.71
2022-10-28T00:24:07.364Z,79.70
2022-10-28T00:27:12.968Z,79.68
2022-10-28T00:30:20.846Z,79.79
2022-10-28T00:33:26.998Z,79.93
2022-10-28T00:36:36.263Z,79.72
2022-10-28T00:39:41.976Z,79.81
2022-10-28T00:42:48.504Z,79.49
2022-10-28T00:45:54.673Z,79.56
2022-10-28T00:49:04.336Z,80.43
2022-10-28T00:52:24.279Z,79.85
2022-10-28T00:55:23.366Z,79.98
2022-10-28T00:58:29.866Z,79.69
2022-10-28T01:01:35.298Z,79.68
2022-10-28T01:04:43.208Z,79.25
2022-10-28T01:07:48.793Z,79.65
2022-10-28T01:11:34.526Z,79.56
2022-10-28T01:15:15.592Z,79.48
2022-10-28T01:18:34.978Z,79.76
2022-10-28T01:22:03.031Z,79.60
2022-10-28T01:25:47.250Z,79.77
2022-10-28T01:29:04.556Z,79.40
2022-10-28T01:32:20.944Z,79.57
2022-10-28T01:35:38.124Z,79.01
2022-10-28T01:39:06.123Z,79.07
2022-10-28T01:42:24.620Z,79.17
2022-10-28T01:45:40.159Z,80.04
2022-10-28T01:49:05.877Z,79.90
2022-10-28T01:52:09.589Z,79.83
2022-10-28T01:55:30.418Z,79.48
2022-10-28T01:58:40.499Z,80.03
2022-10-28T02:01:46.833Z,80.03
2022-10-28T02:04:53.164Z,79.96
2022-10-28T02:07:59.512Z,79.99
2022-10-28T02:11:40.771Z,80.08
2022-10-28T02:15:20.202Z,80.07
2022-10-28T02:18:43.174Z,80.43
2022-10-28T02:22:00.154Z,80.58
2022-10-28T02:25:25.047Z,80.92
2022-10-28T02:28:38.488Z,80.92
2022-10-28T02:31:52.131Z,80.58
2022-10-28T02:35:00.555Z,80.63
2022-10-28T02:38:07.105Z,80.95
2022-10-28T02:41:16.956Z,81.23
2022-10-28T02:44:26.127Z,80.93
2022-10-28T02:47:34.323Z,80.62
2022-10-28T02:50:48.938Z,80.54
2022-10-28T02:54:21.388Z,80.58
2022-10-28T02:57:36.470Z,80.72
2022-10-28T03:00:42.025Z,80.64
2022-10-28T03:03:48.342Z,80.95
2022-10-28T03:06:57.344Z,81.16
2022-10-28T03:10:03.546Z,81.35
2022-10-28T03:13:09.867Z,81.34
2022-10-28T03:16:15.149Z,81.38
2022-10-28T03:19:14.281Z,81.00
2022-10-28T03:22:20.604Z,80.88
2022-10-28T03:25:19.278Z,80.53
2022-10-28T03:28:04.875Z,81.43
2022-10-28T03:30:57.468Z,81.11
2022-10-28T03:33:50.203Z,81.51
2022-10-28T03:36:56.011Z,81.64
2022-10-28T03:40:01.721Z,81.70
2022-10-28T03:43:07.838Z,81.79
2022-10-28T03:46:14.758Z,81.96
2022-10-28T03:49:20.978Z,81.71
2022-10-28T03:52:26.419Z,81.65
2022-10-28T03:55:34.227Z,81.48
2022-10-28T03:58:41.242Z,81.64
2022-10-28T04:01:46.869Z,81.64
2022-10-28T04:04:53.324Z,82.00
2022-10-28T04:08:00.571Z,81.86
2022-10-28T04:11:06.411Z,82.09
2022-10-28T04:14:13.471Z,81.38
2022-10-28T04:17:19.391Z,80.85
2022-10-28T04:20:25.297Z,80.85
2022-10-28T04:23:31.718Z,80.58
2022-10-28T04:26:38.259Z,81.25
2022-10-28T04:29:44.188Z,81.37
2022-10-28T04:32:49.525Z,81.12
2022-10-28T04:35:55.459Z,80.89
2022-10-28T04:39:01.752Z,81.11
2022-10-28T04:42:08.264Z,80.94
2022-10-28T04:45:13.044Z,81.13
2022-10-28T04:48:18.665Z,80.77
2022-10-28T04:51:23.475Z,80.80
2022-10-28T04:54:29.636Z,80.50
2022-10-28T04:57:34.761Z,80.35
2022-10-28T05:00:40.419Z,80.51
2022-10-28T05:03:45.783Z,80.96
2022-10-28T05:06:52.412Z,80.76
2022-10-28T05:09:52.069Z,80.69
2022-10-28T05:13:00.098Z,81.40
2022-10-28T05:16:05.892Z,81.78
2022-10-28T05:19:13.813Z,81.99
2022-10-28T05:22:20.436Z,82.06
2022-10-28T05:25:27.603Z,81.98
2022-10-28T05:28:33.510Z,82.22
2022-10-28T05:31:39.296Z,82.09
2022-10-28T05:34:45.202Z,81.92
2022-10-28T05:37:51.712Z,81.83
2022-10-28T05:40:58.761Z,81.10
2022-10-28T05:44:05.532Z,80.98
2022-10-28T05:47:11.223Z,80.36
2022-10-28T05:50:17.052Z,79.92
2022-10-28T05:53:23.100Z,79.22
2022-10-28T05:56:29.120Z,79.28
2022-10-28T05:59:34.147Z,79.63
2022-10-28T06:02:40.606Z,79.52
2022-10-28T06:05:40.170Z,79.44
2022-10-28T06:08:46.835Z,79.65
2022-10-28T06:11:50.704Z,79.50
2022-10-28T06:14:56.104Z,79.09
2022-10-28T06:18:04.787Z,79.10
2022-10-28T06:21:11.716Z,78.85
2022-10-28T06:24:17.385Z,77.98
2022-10-28T06:27:22.988Z,78.18
2022-10-28T06:30:28.685Z,78.28
2022-10-28T06:33:35.431Z,78.22
2022-10-28T06:36:40.964Z,78.57
2022-10-28T06:39:43.328Z,77.99
2022-10-28T06:42:48.306Z,77.74
2022-10-28T06:45:55.940Z,77.74
2022-10-28T06:49:04.151Z,77.55
2022-10-28T06:52:09.915Z,77.95
2022-10-28T06:55:14.780Z,77.63
2022-10-28T06:58:20.831Z,77.37
2022-10-28T07:01:26.951Z,76.39
2022-10-28T07:04:33.044Z,76.10
2022-10-28T07:07:32.303Z,75.86
2022-10-28T07:10:37.500Z,75.69
2022-10-28T07:13:44.365Z,75.79
2022-10-28T07:16:50.928Z,76.18
2022-10-28T07:19:57.624Z,75.79
2022-10-28T07:23:05.758Z,75.72
2022-10-28T07:26:11.085Z,75.04
2022-10-28T07:29:17.485Z,74.82
2022-10-28T07:32:26.056Z,73.95
2022-10-28T07:35:31.860Z,73.64
2022-10-28T07:38:37.778Z,73.54
2022-10-28T07:41:43.547Z,72.86
2022-10-28T07:44:51.502Z,72.73
2022-10-28T07:47:59.017Z,72.35
2022-10-28T07:51:04.878Z,73.01
2022-10-28T07:54:11.713Z,74.34
2022-10-28T07:57:18.674Z,73.71
2022-10-28T08:00:26.023Z,73.24
2022-10-28T08:03:38.660Z,72.35
2022-10-28T08:06:40.956Z,72.13
2022-10-28T08:09:47.963Z,71.69
2022-10-28T08:12:55.533Z,72.00
2022-10-28T08:16:10.338Z,72.28
2022-10-28T08:19:17.030Z,72.01
2022-10-28T08:22:23.720Z,71.48
2022-10-28T08:25:31.309Z,71.74
2022-10-28T08:28:37.736Z,71.36
2022-10-28T08:31:45.569Z,72.08
2022-10-28T08:34:52.673Z,71.79
2022-10-28T08:37:58.170Z,71.50
2022-10-28T08:41:43.490Z,70.75
2022-10-28T08:45:20.499Z,70.71
2022-10-28T08:48:46.034Z,69.83
2022-10-28T08:52:11.428Z,70.45
2022-10-28T08:55:28.910Z,70.51
2022-10-28T08:58:44.481Z,70.07
2022-10-28T09:02:03.794Z,69.40
2022-10-28T09:05:33.849Z,68.47
2022-10-28T09:08:42.257Z,68.35
2022-10-28T09:12:22.637Z,68.34
2022-10-28T09:15:53.970Z,68.31
2022-10-28T09:19:14.096Z,67.35
2022-10-28T09:22:39.991Z,67.87
2022-10-28T09:26:15.856Z,68.08
2022-10-28T09:29:44.301Z,67.47
2022-10-28T09:33:15.067Z,67.12
2022-10-28T09:36:28.218Z,66.02
2022-10-28T09:39:45.671Z,66.95
2022-10-28T09:42:54.813Z,65.86
2022-10-28T09:46:02.099Z,64.31
2022-10-28T09:49:08.457Z,63.84
2022-10-28T09:52:40.189Z,64.28
2022-10-28T09:55:43.628Z,64.43
2022-10-28T09:58:49.108Z,64.73
2022-10-28T10:01:54.841Z,64.26
2022-10-28T10:05:01.788Z,64.30
2022-10-28T10:08:17.931Z,62.53
2022-10-28T10:11:27.759Z,62.71
2022-10-28T10:14:45.807Z,63.10
2022-10-28T10:17:59.479Z,64.70
2022-10-28T10:21:07.974Z,65.08
2022-10-28T10:24:13.944Z,62.68
2022-10-28T10:27:35.458Z,62.19
2022-10-28T10:30:53.033Z,62.13
2022-10-28T10:33:59.002Z,64.20
2022-10-28T10:37:08.789Z,64.90
2022-10-28T10:40:42.460Z,65.98
2022-10-28T10:43:49.987Z,66.16
2022-10-28T10:46:56.211Z,64.46
2022-10-28T10:50:03.601Z,64.37
2022-10-28T10:53:12.408Z,64.46
2022-10-28T10:56:22.540Z,64.15
2022-10-28T10:59:44.604Z,63.39
2022-10-28T11:02:55.799Z,62.63
2022-10-28T11:06:24.597Z,62.89
2022-10-28T11:09:21.231Z,64.65
2022-10-28T11:12:43.104Z,65.60
2022-10-28T11:15:50.878Z,66.30
2022-10-28T11:19:07.420Z,66.28
2022-10-28T11:22:43.428Z,67.32
2022-10-28T11:25:54.597Z,67.87
2022-10-28T11:29:23.883Z,68.55
2022-10-28T11:33:08.127Z,68.83
2022-10-28T11:36:26.420Z,69.37
2022-10-28T11:39:56.142Z,69.06
2022-10-28T11:43:22.377Z,67.07
2022-10-28T11:47:03.983Z,66.46
2022-10-28T11:50:36.857Z,66.28
2022-10-28T11:53:51.891Z,66.52
2022-10-28T11:57:02.567Z,66.64
2022-10-28T12:00:38.355Z,65.99
2022-10-28T12:04:27.480Z,66.55
2022-10-28T12:07:44.830Z,66.54
2022-10-28T12:11:29.095Z,66.46
2022-10-28T12:14:52.322Z,66.93
2022-10-28T12:18:14.097Z,66.20
2022-10-28T12:21:28.759Z,66.20
2022-10-28T12:24:36.709Z,65.40
2022-10-28T12:27:52.001Z,64.47
2022-10-28T12:30:57.067Z,62.62
2022-10-28T12:34:06.809Z,63.10
2022-10-28T12:37:14.958Z,63.00
2022-10-28T12:40:39.728Z,62.26
2022-10-28T12:44:06.571Z,62.84
2022-10-28T12:47:44.290Z,62.75
2022-10-28T12:50:59.436Z,62.74
2022-10-28T12:54:26.795Z,62.30
2022-10-28T12:57:32.243Z,62.94
2022-10-28T13:00:40.862Z,61.91
2022-10-28T13:03:46.375Z,62.55
2022-10-28T13:07:23.340Z,62.34
2022-10-28T13:10:38.650Z,62.16
2022-10-28T13:14:03.709Z,62.30
2022-10-28T13:17:46.263Z,62.59
2022-10-28T13:21:23.802Z,63.37
2022-10-28T13:24:46.645Z,63.80
2022-10-28T13:27:52.553Z,63.64
2022-10-28T13:31:21.894Z,63.77
2022-10-28T13:34:29.110Z,63.90
2022-10-28T13:37:35.931Z,64.60
2022-10-28T13:40:44.794Z,65.14
2022-10-28T13:43:41.082Z,65.25
2022-10-28T13:47:11.085Z,65.26
2022-10-28T13:50:29.819Z,65.59
2022-10-28T13:54:03.809Z,64.81
2022-10-28T13:57:09.059Z,65.83
2022-10-28T14:00:19.577Z,65.85
2022-10-28T14:03:41.472Z,65.93
2022-10-28T14:06:47.776Z,65.86
2022-10-28T14:09:53.489Z,66.39
2022-10-28T14:13:02.202Z,66.89
2022-10-28T14:16:34.501Z,67.22
2022-10-28T14:19:41.112Z,67.62
2022-10-28T14:22:50.647Z,67.57
2022-10-28T14:26:06.350Z,67.05
2022-10-28T14:29:11.472Z,66.74
2022-10-28T14:32:22.066Z,67.50
2022-10-28T14:35:32.696Z,67.83
2022-10-28T14:38:55.243Z,67.81
2022-10-28T14:42:36.618Z,68.46
2022-10-28T14:46:01.116Z,69.02
2022-10-28T14:49:14.031Z,69.20
2022-10-28T14:52:32.947Z,69.83
2022-10-28T14:55:44.745Z,69.89
2022-10-28T14:58:53.370Z,69.77
2022-10-28T15:02:31.143Z,70.55
2022-10-28T15:05:37.056Z,70.78
2022-10-28T15:08:42.875Z,71.31
2022-10-28T15:11:49.181Z,71.36
2022-10-28T15:15:05.863Z,71.62
2022-10-28T15:18:12.504Z,71.72
2022-10-28T15:21:26.354Z,71.52
2022-10-28T15:24:26.619Z,71.06
2022-10-28T15:27:14.308Z,71.36
2022-10-28T15:30:06.616Z,71.07
2022-10-28T15:32:58.972Z,71.65
2022-10-28T15:36:05.019Z,71.80
2022-10-28T15:39:25.076Z,71.90
2022-10-28T15:42:58.816Z,72.14
2022-10-28T15:46:04.998Z,72.24
2022-10-28T15:49:12.813Z,71.94
2022-10-28T15:52:40.870Z,71.71
2022-10-28T15:59:00.998Z,72.02
2022-10-28T16:02:08.697Z,71.16
2022-10-28T16:05:14.167Z,71.36
2022-10-28T16:08:32.688Z,72.32
2022-10-28T16:11:38.493Z,73.08
2022-10-28T16:15:09.326Z,73.24
2022-10-28T16:18:16.692Z,73.46
2022-10-28T16:21:15.118Z,73.62
2022-10-28T16:24:21.714Z,73.25
2022-10-28T16:27:33.515Z,73.58
2022-10-28T16:30:38.926Z,73.36
2022-10-28T16:33:49.115Z,72.96
2022-10-28T16:36:54.929Z,73.06
2022-10-28T16:40:00.096Z,72.81
2022-10-28T16:43:08.686Z,72.83
2022-10-28T16:46:16.379Z,72.68
2022-10-28T16:49:21.971Z,72.52
2022-10-28T16:52:26.592Z,72.38
2022-10-28T16:55:34.765Z,72.34
2022-10-28T16:58:42.185Z,72.53
2022-10-28T17:01:48.999Z,72.84
2022-10-28T17:04:55.588Z,72.30
2022-10-28T17:08:07.329Z,72.22
2022-10-28T17:11:11.624Z,71.64
2022-10-28T17:14:18.094Z,71.70
2022-10-28T17:17:23.322Z,72.20
2022-10-28T17:20:30.837Z,72.23
2022-10-28T17:23:37.536Z,72.96
2022-10-28T17:26:44.241Z,72.65
2022-10-28T17:29:49.254Z,72.98
2022-10-28T17:32:55.928Z,73.27
2022-10-28T17:36:02.330Z,73.49
2022-10-28T17:39:10.119Z,73.43
2022-10-28T17:42:16.183Z,73.66
2022-10-28T17:45:22.768Z,73.89
2022-10-28T17:48:29.457Z,74.22
2022-10-28T17:51:37.835Z,73.85
2022-10-28T17:54:44.206Z,73.91
2022-10-28T17:57:53.081Z,73.81
2022-10-28T18:01:00.316Z,73.70
2022-10-28T18:04:06.226Z,74.20
2022-10-28T18:07:12.882Z,74.39
2022-10-28T18:10:20.317Z,74.70
2022-10-28T18:13:26.633Z,75.05
2022-10-28T18:16:34.585Z,75.27
2022-10-28T18:19:40.129Z,75.35
2022-10-28T18:22:46.686Z,75.19
2022-10-28T18:25:53.080Z,75.31
2022-10-28T18:28:59.525Z,76.04
2022-10-28T18:32:04.705Z,76.32
2022-10-28T18:35:10.546Z,76.48
2022-10-28T18:38:15.619Z,75.58
2022-10-28T18:41:33.453Z,75.40
2022-10-28T18:44:38.619Z,74.92
2022-10-28T18:47:43.848Z,75.04
2022-10-28T18:50:50.332Z,75.16
2022-10-28T18:54:02.334Z,75.12
2022-10-28T18:57:08.244Z,75.41
2022-10-28T19:00:19.156Z,75.95
2022-10-28T19:03:23.699Z,76.36
2022-10-28T19:06:30.991Z,76.33
2022-10-28T19:09:37.343Z,76.42
2022-10-28T19:12:45.984Z,76.64
2022-10-28T19:15:50.758Z,76.51
2022-10-28T19:18:58.425Z,76.55
2022-10-28T19:22:04.301Z,76.39
2022-10-28T19:25:10.241Z,75.83
2022-10-28T19:28:17.719Z,74.94
2022-10-28T19:31:26.630Z,73.94
2022-10-28T19:34:25.597Z,74.54
2022-10-28T19:37:18.232Z,74.54
2022-10-28T19:40:23.936Z,74.60
2022-10-28T19:43:30.678Z,74.58
2022-10-28T19:46:35.622Z,74.61
2022-10-28T19:49:44.278Z,74.68
2022-10-28T19:52:42.714Z,74.04
2022-10-28T19:55:49.281Z,74.12
2022-10-28T19:58:56.813Z,75.11
2022-10-28T20:02:02.729Z,76.48
2022-10-28T20:05:09.904Z,76.66
2022-10-28T20:08:16.926Z,76.84
2022-10-28T20:11:26.236Z,76.41
2022-10-28T20:14:31.417Z,77.10
2022-10-28T20:17:38.081Z,77.78
2022-10-28T20:20:44.410Z,78.01
2022-10-28T20:26:56.501Z,79.26
2022-10-28T20:30:03.628Z,79.10
2022-10-28T20:33:08.984Z,78.81
2022-10-28T20:36:14.851Z,79.07
2022-10-28T20:39:25.567Z,78.62
2022-10-28T20:42:24.564Z,78.57
2022-10-28T20:45:30.313Z,78.24
2022-10-28T20:48:37.220Z,78.32
2022-10-28T20:51:45.005Z,78.09
2022-10-28T20:54:49.699Z,78.16
2022-10-28T20:57:55.303Z,78.19
2022-10-28T21:01:00.808Z,77.77
2022-10-28T21:04:08.636Z,78.04
2022-10-28T21:07:15.527Z,78.64
2022-10-28T21:10:23.701Z,78.26
2022-10-28T21:13:32.043Z,78.87
2022-10-28T21:16:37.439Z,78.27
2022-10-28T21:19:44.857Z,78.82
2022-10-28T21:22:50.880Z,78.98
2022-10-28T21:25:51.324Z,79.02
2022-10-28T21:28:58.829Z,78.12
2022-10-28T21:32:05.245Z,77.72
2022-10-28T21:35:11.375Z,77.70
2022-10-28T21:38:18.130Z,77.55
2022-10-28T21:41:33.659Z,77.78
2022-10-28T21:44:38.502Z,77.59
2022-10-28T21:47:44.307Z,77.50
2022-10-28T21:50:49.861Z,77.38
2022-10-28T21:53:56.067Z,77.20
2022-10-28T21:56:57.901Z,77.40
2022-10-28T21:59:57.866Z,77.41
2022-10-28T22:03:05.874Z,76.88
2022-10-28T22:06:11.150Z,76.62
2022-10-28T22:09:17.538Z,76.38
2022-10-28T22:12:24.460Z,76.60
2022-10-28T22:15:30.956Z,76.54
2022-10-28T22:18:36.550Z,76.20
2022-10-28T22:21:47.982Z,76.17
2022-10-28T22:24:53.710Z,76.23
2022-10-28T22:27:59.533Z,76.30
2022-10-28T22:31:05.145Z,75.88
2022-10-28T22:34:12.997Z,76.07
2022-10-28T22:37:18.816Z,76.31
2022-10-28T22:40:25.443Z,76.75
2022-10-28T22:43:31.118Z,76.68
2022-10-28T22:46:38.188Z,76.84
2022-10-28T22:49:43.365Z,76.83
2022-10-28T22:52:49.609Z,76.82
2022-10-28T22:55:56.348Z,76.18
2022-10-28T22:59:03.861Z,76.00
2022-10-28T23:02:09.881Z,76.35
2022-10-28T23:05:15.960Z,76.02
2022-10-28T23:08:22.563Z,76.27
2022-10-28T23:11:28.150Z,76.15
2022-10-28T23:14:34.245Z,76.57
2022-10-28T23:17:39.522Z,76.53
2022-10-28T23:20:44.582Z,76.71
2022-10-28T23:23:53.942Z,76.98
2022-10-28T23:27:00.565Z,77.30
2022-10-28T23:30:05.944Z,77.48
2022-10-28T23:33:12.834Z,77.30
2022-10-28T23:36:11.793Z,77.37
2022-10-28T23:39:19.438Z,77.35
2022-10-28T23:42:26.144Z,77.28
2022-10-28T23:45:31.748Z,77.55
2022-10-28T23:48:37.741Z,77.94
2022-10-28T23:51:37.364Z,77.95
2022-10-28T23:54:44.759Z,78.09
2022-10-28T23:57:51.325Z,78.67
